Terminal Aerodrome Forecast
Issued by NWS

Home | Current Version | Previous Version | Text Only | Print | Product List | Glossary On
Versions: 1 2 3 4 5 6 7 8 9 10 11 12 13 14 15 16 17 18 19 20 21
487
FTUS43 KMQT 261741
TAFIWD
TAF
KIWD 261741Z 2618/2718 23003KT P6SM VCSH BKN020
     FM262200 30004KT P6SM VCTS FEW050CB
     FM270200 23004KT P6SM FEW200
     FM271000 17003KT 3SM BR BKN120
     FM271600 10004KT 5SM -SHRA BR OVC040=

USA.gov is the U.S. government's official web portal to all federal, state and local government web resources and services.